createdAt,value
2018-09-28T00:00:18.665Z,97708.37
2018-09-28T00:02:49.431Z,97707.37
2018-09-28T00:05:18.945Z,97709.63
2018-09-28T00:07:48.367Z,97704.69
2018-09-28T00:10:17.839Z,97707.71
2018-09-28T00:12:47.293Z,97706.41
2018-09-28T00:15:17.485Z,97706.72
2018-09-28T00:17:46.843Z,97696.61
2018-09-28T00:20:16.232Z,97702.22
2018-09-28T00:22:45.689Z,97698.25
2018-09-28T00:25:15.168Z,97700.36
2018-09-28T00:27:44.613Z,97694.09
2018-09-28T00:30:14.031Z,97699.31
2018-09-28T00:32:43.557Z,97693.63
2018-09-28T00:35:13.013Z,97692.42
2018-09-28T00:37:42.371Z,97686.22
2018-09-28T00:40:11.853Z,97695.68
2018-09-28T00:42:41.369Z,97690.02
2018-09-28T00:45:10.818Z,97680.12
2018-09-28T00:47:40.277Z,97676.33
2018-09-28T00:50:09.722Z,97669.36
2018-09-28T00:52:39.143Z,97671.95
2018-09-28T00:55:08.558Z,97672.30
2018-09-28T00:57:38.059Z,97669.22
2018-09-28T01:00:07.504Z,97668.03
2018-09-28T01:02:36.910Z,97670.31
2018-09-28T01:05:06.442Z,97669.37
2018-09-28T01:07:36.034Z,97662.52
2018-09-28T01:10:05.666Z,97660.91
2018-09-28T01:12:35.219Z,97659.80
2018-09-28T01:15:04.838Z,97658.66
2018-09-28T01:17:34.256Z,97650.62
2018-09-28T01:20:03.761Z,97651.96
2018-09-28T01:22:33.222Z,97646.47
2018-09-28T01:25:02.636Z,97648.11
2018-09-28T01:27:32.098Z,97644.78
2018-09-28T01:30:01.592Z,97637.48
2018-09-28T01:32:31.153Z,97634.55
2018-09-28T01:35:00.877Z,97624.84
2018-09-28T01:37:30.289Z,97634.41
2018-09-28T01:40:01.042Z,97633.94
2018-09-28T01:42:30.758Z,97639.38
2018-09-28T01:45:00.187Z,97631.55
2018-09-28T01:47:30.012Z,97638.58
2018-09-28T01:49:59.931Z,97630.13
2018-09-28T01:52:29.380Z,97626.19
2018-09-28T01:54:58.793Z,97619.52
2018-09-28T01:57:30.492Z,97615.47
2018-09-28T01:59:59.932Z,97612.86
2018-09-28T02:02:29.319Z,97613.29
2018-09-28T02:04:58.766Z,97612.53
2018-09-28T02:07:28.540Z,97606.20
2018-09-28T02:09:57.942Z,97604.59
2018-09-28T02:12:27.888Z,97606.19
2018-09-28T02:14:57.281Z,97605.16
2018-09-28T02:17:26.808Z,97613.59
2018-09-28T02:19:56.224Z,97608.37
2018-09-28T02:22:25.719Z,97596.56
2018-09-28T02:24:55.176Z,97600.23
2018-09-28T02:27:24.615Z,97594.90
2018-09-28T02:29:53.945Z,97598.88
2018-09-28T02:32:23.247Z,97593.09
2018-09-28T02:34:52.562Z,97596.95
2018-09-28T02:37:21.897Z,97589.09
2018-09-28T02:39:51.252Z,97590.56
2018-09-28T02:42:20.576Z,97582.12
2018-09-28T02:44:49.921Z,97591.81
2018-09-28T02:47:19.302Z,97580.95
2018-09-28T02:49:48.619Z,97573.60
2018-09-28T02:52:17.935Z,97577.95
2018-09-28T02:54:47.265Z,97566.07
2018-09-28T02:57:16.589Z,97572.06
2018-09-28T02:59:45.990Z,97570.05
2018-09-28T03:02:15.316Z,97571.80
2018-09-28T03:04:44.669Z,97571.06
2018-09-28T03:07:13.939Z,97578.89
2018-09-28T03:09:43.317Z,97568.36
2018-09-28T03:12:12.630Z,97568.63
2018-09-28T03:14:41.965Z,97561.78
2018-09-28T03:17:11.253Z,97556.55
2018-09-28T03:19:40.583Z,97567.22
2018-09-28T03:22:10.007Z,97558.62
2018-09-28T03:24:39.396Z,97562.94
2018-09-28T03:27:08.748Z,97565.76
2018-09-28T03:29:38.147Z,97562.75
2018-09-28T03:32:07.614Z,97561.72
2018-09-28T03:34:36.937Z,97565.94
2018-09-28T03:37:06.266Z,97557.44
2018-09-28T03:39:35.704Z,97557.72
2018-09-28T03:42:05.007Z,97557.88
2018-09-28T03:44:34.378Z,97551.02
2018-09-28T03:47:03.717Z,97556.30
2018-09-28T03:49:33.029Z,97552.93
2018-09-28T03:52:02.342Z,97550.80
2018-09-28T03:54:31.657Z,97562.47
2018-09-28T03:57:00.975Z,97551.30
2018-09-28T03:59:30.300Z,97555.59
2018-09-28T04:01:59.636Z,97555.84
2018-09-28T04:04:29.032Z,97556.97
2018-09-28T04:06:58.389Z,97559.09
2018-09-28T04:09:27.751Z,97559.27
2018-09-28T04:11:57.096Z,97560.69
2018-09-28T04:14:26.413Z,97565.56
2018-09-28T04:16:55.767Z,97566.41
2018-09-28T04:19:25.099Z,97569.34
2018-09-28T04:22:01.603Z,97564.91
2018-09-28T04:24:31.992Z,97582.63
2018-09-28T04:27:01.327Z,97571.84
2018-09-28T04:29:30.654Z,97568.77
2018-09-28T04:31:59.999Z,97567.72
2018-09-28T04:34:29.369Z,97569.55
2018-09-28T04:36:58.679Z,97564.25
2018-09-28T04:39:28.012Z,97562.56
2018-09-28T04:41:57.340Z,97563.44
2018-09-28T04:44:26.665Z,97560.77
2018-09-28T04:46:56.012Z,97564.41
2018-09-28T04:49:25.337Z,97565.66
2018-09-28T04:51:54.703Z,97556.86
2018-09-28T04:54:24.098Z,97562.11
2018-09-28T04:56:53.503Z,97562.87
2018-09-28T04:59:22.828Z,97563.00
2018-09-28T05:01:52.156Z,97563.07
2018-09-28T05:04:21.479Z,97569.84
2018-09-28T05:06:50.843Z,97570.48
2018-09-28T05:09:20.211Z,97578.05
2018-09-28T05:11:49.674Z,97575.89
2018-09-28T05:14:18.980Z,97582.94
2018-09-28T05:16:48.311Z,97578.52
2018-09-28T05:19:17.671Z,97581.55
2018-09-28T05:21:46.965Z,97576.66
2018-09-28T05:24:16.278Z,97581.31
2018-09-28T05:26:45.616Z,97590.80
2018-09-28T05:29:14.933Z,97594.37
2018-09-28T05:31:44.457Z,97597.30
2018-09-28T05:34:13.668Z,97595.05
2018-09-28T05:36:43.055Z,97597.20
2018-09-28T05:39:12.409Z,97591.80
2018-09-28T05:41:41.844Z,97594.91
2018-09-28T05:44:11.256Z,97600.23
2018-09-28T05:46:40.617Z,97594.47
2018-09-28T05:49:09.950Z,97582.09
2018-09-28T05:51:39.292Z,97588.97
2018-09-28T05:54:08.776Z,97576.10
2018-09-28T05:56:38.119Z,97575.55
2018-09-28T05:59:12.897Z,97581.93
2018-09-28T06:01:47.521Z,97577.48
2018-09-28T06:04:22.189Z,97572.30
2018-09-28T06:06:51.532Z,97578.61
2018-09-28T06:09:20.870Z,97581.52
2018-09-28T06:11:50.257Z,97579.61
2018-09-28T06:14:19.594Z,97584.95
2018-09-28T06:16:48.993Z,97580.56
2018-09-28T06:19:24.983Z,97566.62
2018-09-28T06:21:54.340Z,97571.89
2018-09-28T06:24:23.654Z,97566.56
2018-09-28T06:26:53.315Z,97572.40
2018-09-28T06:29:22.679Z,97580.57
2018-09-28T06:31:52.049Z,97581.03
2018-09-28T06:34:21.400Z,97573.06
2018-09-28T06:36:50.744Z,97573.48
2018-09-28T06:39:20.095Z,97578.65
2018-09-28T06:41:49.607Z,97583.19
2018-09-28T06:44:18.931Z,97585.16
2018-09-28T06:46:48.266Z,97581.09
2018-09-28T06:49:17.619Z,97585.55
2018-09-28T06:51:46.963Z,97586.56
2018-09-28T06:54:16.334Z,97583.69
2018-09-28T06:56:45.671Z,97585.86
2018-09-28T06:59:15.011Z,97586.77
2018-09-28T07:01:44.342Z,97589.77
2018-09-28T07:04:13.906Z,97582.45
2018-09-28T07:06:43.237Z,97589.78
2018-09-28T07:09:13.553Z,97589.77
2018-09-28T07:11:42.901Z,97581.99
2018-09-28T07:14:12.267Z,97577.57
2018-09-28T07:16:41.695Z,97584.83
2018-09-28T07:19:11.006Z,97579.47
2018-09-28T07:21:40.339Z,97581.06
2018-09-28T07:24:09.697Z,97582.77
2018-09-28T07:26:39.029Z,97588.00
2018-09-28T07:29:08.379Z,97591.27
2018-09-28T07:31:37.726Z,97595.59
2018-09-28T07:34:07.125Z,97592.37
2018-09-28T07:36:36.634Z,97586.88
2018-09-28T07:39:10.121Z,97596.31
2018-09-28T07:41:39.515Z,97591.70
2018-09-28T07:44:08.991Z,97596.78
2018-09-28T07:46:38.432Z,97595.80
2018-09-28T07:49:08.090Z,97603.05
2018-09-28T07:51:37.409Z,97599.95
2018-09-28T07:54:06.836Z,97606.09
2018-09-28T07:56:36.245Z,97604.95
2018-09-28T07:59:05.608Z,97602.55
2018-09-28T08:01:35.097Z,97599.61
2018-09-28T08:04:04.543Z,97607.87
2018-09-28T08:06:33.823Z,97606.13
2018-09-28T08:09:03.211Z,97602.08
2018-09-28T08:11:32.552Z,97613.56
2018-09-28T08:14:01.907Z,97609.63
2018-09-28T08:16:31.229Z,97604.36
2018-09-28T08:19:00.610Z,97599.17
2018-09-28T08:21:29.967Z,97603.67
2018-09-28T08:23:59.318Z,97612.09
2018-09-28T08:26:28.659Z,97605.59
2018-09-28T08:28:58.021Z,97614.81
2018-09-28T08:31:27.428Z,97611.04
2018-09-28T08:33:56.754Z,97601.21
2018-09-28T08:36:26.153Z,97596.23
2018-09-28T08:38:55.459Z,97599.80
2018-09-28T08:41:24.903Z,97589.69
2018-09-28T08:43:54.228Z,97593.79
2018-09-28T08:46:23.560Z,97591.50
2018-09-28T08:48:52.897Z,97589.88
2018-09-28T08:51:22.225Z,97597.14
2018-09-28T08:53:51.641Z,97590.44
2018-09-28T08:56:20.972Z,97579.80
2018-09-28T08:58:50.288Z,97585.97
2018-09-28T09:01:19.612Z,97584.84
2018-09-28T09:03:48.949Z,97590.40
2018-09-28T09:06:18.261Z,97588.50
2018-09-28T09:08:47.566Z,97589.77
2018-09-28T09:11:16.924Z,97591.85
2018-09-28T09:13:46.316Z,97586.16
2018-09-28T09:16:15.680Z,97588.59
2018-09-28T09:18:45.025Z,97591.44
2018-09-28T09:21:14.340Z,97587.13
2018-09-28T09:23:43.687Z,97593.29
2018-09-28T09:26:13.041Z,97596.73
2018-09-28T09:28:42.376Z,97587.04
2018-09-28T09:31:11.702Z,97588.02
2018-09-28T09:33:41.023Z,97580.03
2018-09-28T09:36:10.374Z,97573.78
2018-09-28T09:38:39.700Z,97564.53
2018-09-28T09:41:09.036Z,97565.55
2018-09-28T09:43:38.427Z,97568.95
2018-09-28T09:46:07.994Z,97573.33
2018-09-28T09:48:37.502Z,97565.74
2018-09-28T09:51:06.904Z,97569.53
2018-09-28T09:53:36.275Z,97562.19
2018-09-28T09:56:05.605Z,97552.53
2018-09-28T09:58:34.923Z,97552.94
2018-09-28T10:01:05.169Z,97547.94
2018-09-28T10:03:40.427Z,97550.14
2018-09-28T10:06:10.982Z,97549.05
2018-09-28T10:08:40.304Z,97544.67
2018-09-28T10:11:09.661Z,97534.13
2018-09-28T10:13:38.978Z,97537.75
2018-09-28T10:16:08.317Z,97532.56
2018-09-28T10:18:37.628Z,97532.26
2018-09-28T10:21:07.355Z,97529.92
2018-09-28T10:23:36.818Z,97529.08
2018-09-28T10:26:06.144Z,97531.72
2018-09-28T10:28:35.538Z,97523.56
2018-09-28T10:31:04.976Z,97519.49
2018-09-28T10:33:34.354Z,97520.65
2018-09-28T10:36:03.643Z,97515.33
2018-09-28T10:38:32.954Z,97508.40
2018-09-28T10:41:02.444Z,97508.98
2018-09-28T10:43:31.627Z,97507.09
2018-09-28T10:46:00.990Z,97504.45
2018-09-28T10:48:30.292Z,97507.12
2018-09-28T10:50:59.666Z,97506.47
2018-09-28T10:53:29.003Z,97499.59
2018-09-28T10:55:58.428Z,97500.84
2018-09-28T10:58:27.833Z,97502.59
2018-09-28T11:00:57.221Z,97498.55
2018-09-28T11:03:26.591Z,97500.72
2018-09-28T11:05:55.848Z,97506.72
2018-09-28T11:08:25.213Z,97489.59
2018-09-28T11:10:54.494Z,97488.17
2018-09-28T11:13:23.875Z,97498.02
2018-09-28T11:15:53.252Z,97489.98
2018-09-28T11:18:22.578Z,97490.53
2018-09-28T11:20:51.919Z,97489.55
2018-09-28T11:23:21.232Z,97481.67
2018-09-28T11:25:50.561Z,97476.08
2018-09-28T11:28:19.909Z,97469.47
2018-09-28T11:30:49.229Z,97470.71
2018-09-28T11:33:18.664Z,97471.80
2018-09-28T11:35:48.680Z,97468.95
2018-09-28T11:38:18.113Z,97469.48
2018-09-28T11:40:47.444Z,97460.38
2018-09-28T11:43:16.791Z,97460.22
2018-09-28T11:45:46.195Z,97457.94
2018-09-28T11:48:15.554Z,97454.77
2018-09-28T11:50:44.866Z,97448.63
2018-09-28T11:53:15.697Z,97446.20
2018-09-28T11:55:45.046Z,97441.95
2018-09-28T11:58:14.390Z,97442.02
2018-09-28T12:00:43.696Z,97442.41
2018-09-28T12:03:13.033Z,97440.53
2018-09-28T12:05:42.343Z,97442.44
2018-09-28T12:08:11.659Z,97436.86
2018-09-28T12:10:41.012Z,97435.28
2018-09-28T12:13:10.783Z,97434.16
2018-09-28T12:15:40.454Z,97427.59
2018-09-28T12:18:09.786Z,97428.27
2018-09-28T12:20:39.097Z,97426.34
2018-09-28T12:23:08.452Z,97428.44
2018-09-28T12:25:37.823Z,97422.22
2018-09-28T12:28:07.206Z,97416.94
2018-09-28T12:30:36.608Z,97412.41
2018-09-28T12:33:06.146Z,97417.10
2018-09-28T12:35:35.486Z,97415.83
2018-09-28T12:38:04.858Z,97419.63
2018-09-28T12:40:34.179Z,97421.83
2018-09-28T12:43:03.526Z,97411.08
2018-09-28T12:45:32.859Z,97414.12
2018-09-28T12:48:02.199Z,97409.09
2018-09-28T12:50:31.540Z,97403.35
2018-09-28T12:53:00.890Z,97400.12
2018-09-28T12:55:30.242Z,97396.55
2018-09-28T12:57:59.597Z,97390.84
2018-09-28T13:00:28.959Z,97400.23
2018-09-28T13:02:58.303Z,97393.56
2018-09-28T13:05:27.651Z,97395.72
2018-09-28T13:07:56.990Z,97391.25
2018-09-28T13:10:26.318Z,97386.88
2018-09-28T13:12:55.786Z,97392.72
2018-09-28T13:15:25.191Z,97393.98
2018-09-28T13:17:54.515Z,97388.16
2018-09-28T13:20:24.073Z,97386.53
2018-09-28T13:22:53.308Z,97379.06
2018-09-28T13:25:22.637Z,97374.13
2018-09-28T13:27:51.979Z,97378.33
2018-09-28T13:30:21.301Z,97377.50
2018-09-28T13:32:51.254Z,97379.20
2018-09-28T13:35:20.558Z,97364.60
2018-09-28T13:37:49.961Z,97368.01
2018-09-28T13:40:19.355Z,97371.55
2018-09-28T13:42:48.798Z,97377.75
2018-09-28T13:45:18.119Z,97376.53
2018-09-28T13:47:47.430Z,97377.48
2018-09-28T13:50:16.826Z,97378.05
2018-09-28T13:52:46.733Z,97376.14
2018-09-28T13:55:16.033Z,97375.21
2018-09-28T13:57:45.493Z,97379.49
2018-09-28T14:00:14.839Z,97373.75
2018-09-28T14:02:44.239Z,97369.95
2018-09-28T14:05:13.555Z,97370.72
2018-09-28T14:07:42.978Z,97370.49
2018-09-28T14:10:12.333Z,97368.55
2018-09-28T14:12:41.629Z,97363.23
2018-09-28T14:15:11.648Z,97369.92
2018-09-28T14:17:41.060Z,97370.55
2018-09-28T14:20:10.432Z,97373.51
2018-09-28T14:22:39.762Z,97362.94
2018-09-28T14:25:09.097Z,97357.56
2018-09-28T14:27:38.399Z,97363.66
2018-09-28T14:30:07.852Z,97357.19
2018-09-28T14:32:37.228Z,97358.25
2018-09-28T14:35:06.620Z,97361.30
2018-09-28T14:37:35.987Z,97362.67
2018-09-28T14:40:05.388Z,97361.75
2018-09-28T14:42:34.890Z,97359.20
2018-09-28T14:45:04.271Z,97366.64
2018-09-28T14:47:35.771Z,97363.80
2018-09-28T14:50:05.304Z,97369.98
2018-09-28T14:52:34.778Z,97368.34
2018-09-28T14:55:06.319Z,97374.53
2018-09-28T14:57:35.833Z,97372.37
2018-09-28T15:00:06.475Z,97374.03
2018-09-28T15:02:35.942Z,97369.78
2018-09-28T15:05:05.665Z,97380.45
2018-09-28T15:07:35.086Z,97384.29
2018-09-28T15:10:11.610Z,97380.84
2018-09-28T15:12:41.003Z,97381.14
2018-09-28T15:15:10.401Z,97381.72
2018-09-28T15:17:39.791Z,97384.72
2018-09-28T15:20:09.234Z,97378.81
2018-09-28T15:22:41.140Z,97381.42
2018-09-28T15:25:10.620Z,97385.18
2018-09-28T15:27:40.410Z,97385.91
2018-09-28T15:30:10.077Z,97380.81
2018-09-28T15:32:39.495Z,97386.41
2018-09-28T15:35:09.138Z,97392.98
2018-09-28T15:37:38.945Z,97380.05
2018-09-28T15:40:08.822Z,97392.05
2018-09-28T15:42:38.269Z,97388.27
2018-09-28T15:45:07.750Z,97390.92
2018-09-28T15:47:37.188Z,97390.94
2018-09-28T15:50:06.753Z,97396.81
2018-09-28T15:52:36.171Z,97402.14
2018-09-28T15:55:05.863Z,97399.46
2018-09-28T15:57:35.304Z,97407.30
2018-09-28T16:00:04.828Z,97406.78
2018-09-28T16:02:34.348Z,97412.90
2018-09-28T16:05:03.882Z,97410.06
2018-09-28T16:07:34.877Z,97414.45
2018-09-28T16:10:04.257Z,97414.84
2018-09-28T16:12:33.860Z,97414.84
2018-09-28T16:15:03.461Z,97419.27
2018-09-28T16:17:32.876Z,97415.83
2018-09-28T16:20:02.713Z,97422.98
2018-09-28T16:22:32.343Z,97420.88
2018-09-28T16:25:01.686Z,97425.34
2018-09-28T16:27:31.107Z,97434.27
2018-09-28T16:30:00.566Z,97434.25
2018-09-28T16:32:34.005Z,97434.75
2018-09-28T16:35:03.446Z,97436.53
2018-09-28T16:37:33.270Z,97440.67
2018-09-28T16:40:04.105Z,97441.00
2018-09-28T16:42:34.363Z,97444.50
2018-09-28T16:45:03.813Z,97442.28
2018-09-28T16:47:33.214Z,97448.31
2018-09-28T16:50:02.594Z,97449.94
2018-09-28T16:52:32.055Z,97451.94
2018-09-28T16:55:01.541Z,97455.17
2018-09-28T16:57:31.030Z,97465.66
2018-09-28T17:00:00.424Z,97469.34
2018-09-28T17:02:29.768Z,97468.09
2018-09-28T17:04:59.444Z,97467.33
2018-09-28T17:07:29.460Z,97475.23
2018-09-28T17:09:58.852Z,97479.17
2018-09-28T17:12:32.190Z,97477.50
2018-09-28T17:15:03.579Z,97480.14
2018-09-28T17:17:33.290Z,97480.64
2018-09-28T17:20:06.617Z,97482.84
2018-09-28T17:22:35.993Z,97494.11
2018-09-28T17:25:05.483Z,97494.16
2018-09-28T17:27:34.872Z,97494.16
2018-09-28T17:30:04.279Z,97497.22
2018-09-28T17:32:33.752Z,97504.12
2018-09-28T17:35:03.166Z,97509.75
2018-09-28T17:37:34.398Z,97508.01
2018-09-28T17:42:43.596Z,97511.52
2018-09-28T17:45:13.443Z,97516.70
2018-09-28T17:47:42.878Z,97527.95
2018-09-28T17:50:12.324Z,97533.13
2018-09-28T17:53:02.233Z,97531.39
2018-09-28T17:55:31.840Z,97530.52
2018-09-28T17:58:01.207Z,97536.98
2018-09-28T18:00:30.623Z,97546.48
2018-09-28T18:03:02.016Z,97546.80
2018-09-28T18:05:31.792Z,97542.83
2018-09-28T18:08:01.240Z,97542.39
2018-09-28T18:10:31.497Z,97545.13
2018-09-28T18:13:01.204Z,97550.35
2018-09-28T18:15:30.595Z,97563.80
2018-09-28T18:18:00.004Z,97571.14
2018-09-28T18:20:29.663Z,97571.57
2018-09-28T18:22:59.263Z,97575.47
2018-09-28T18:25:28.702Z,97581.08
2018-09-28T18:27:58.081Z,97584.45
2018-09-28T18:30:27.473Z,97588.23
2018-09-28T18:32:57.844Z,97592.45
2018-09-28T18:35:27.243Z,97602.39
2018-09-28T18:37:56.843Z,97606.19
2018-09-28T18:40:26.447Z,97608.31
2018-09-28T18:42:56.022Z,97608.21
2018-09-28T18:45:25.371Z,97616.03
2018-09-28T18:47:54.951Z,97605.99
2018-09-28T18:50:24.351Z,97615.59
2018-09-28T18:52:53.942Z,97617.73
2018-09-28T18:55:23.378Z,97623.80
2018-09-28T18:57:53.094Z,97627.72
2018-09-28T19:00:22.559Z,97630.42
2018-09-28T19:02:51.965Z,97633.89
2018-09-28T19:05:21.335Z,97630.39
2018-09-28T19:07:50.732Z,97635.14
2018-09-28T19:10:20.217Z,97636.03
2018-09-28T19:12:49.756Z,97636.95
2018-09-28T19:15:19.263Z,97639.98
2018-09-28T19:17:49.276Z,97652.14
2018-09-28T19:20:19.110Z,97646.11
2018-09-28T19:22:49.132Z,97651.23
2018-09-28T19:25:18.536Z,97651.36
2018-09-28T19:27:48.416Z,97659.59
2018-09-28T19:30:17.901Z,97671.70
2018-09-28T19:32:48.227Z,97676.50
2018-09-28T19:35:17.597Z,97667.84
2018-09-28T19:37:47.146Z,97681.70
2018-09-28T19:40:16.843Z,97684.74
2018-09-28T19:42:46.253Z,97702.98
2018-09-28T19:45:15.937Z,97703.00
2018-09-28T19:47:45.507Z,97715.63
2018-09-28T19:50:14.936Z,97723.86
2018-09-28T19:52:44.329Z,97731.27
2018-09-28T19:55:13.875Z,97735.20
2018-09-28T19:57:45.184Z,97741.67
2018-09-28T20:00:14.622Z,97744.29
2018-09-28T20:02:45.702Z,97746.48
2018-09-28T20:05:15.182Z,97757.30
2018-09-28T20:07:44.648Z,97769.42
2018-09-28T20:10:14.016Z,97776.80
2018-09-28T20:12:44.522Z,97780.69
2018-09-28T20:15:13.924Z,97785.91
2018-09-28T20:17:43.308Z,97787.19
2018-09-28T20:20:12.752Z,97793.25
2018-09-28T20:22:42.188Z,97803.20
2018-09-28T20:25:11.647Z,97805.80
2018-09-28T20:27:41.101Z,97809.23
2018-09-28T20:30:10.504Z,97826.49
2018-09-28T20:32:40.791Z,97831.23
2018-09-28T20:35:10.329Z,97832.54
2018-09-28T20:37:39.799Z,97837.27
2018-09-28T20:40:09.214Z,97847.17
2018-09-28T20:42:39.520Z,97849.69
2018-09-28T20:45:08.920Z,97848.86
2018-09-28T20:47:38.354Z,97853.91
2018-09-28T20:50:07.693Z,97857.33
2018-09-28T20:52:37.063Z,97858.63
2018-09-28T20:55:06.400Z,97861.89
2018-09-28T20:57:35.780Z,97870.38
2018-09-28T21:00:05.492Z,97869.73
2018-09-28T21:02:34.825Z,97873.81
2018-09-28T21:05:04.184Z,97871.82
2018-09-28T21:07:33.616Z,97875.28
2018-09-28T21:10:02.945Z,97880.74
2018-09-28T21:12:32.374Z,97881.48
2018-09-28T21:15:01.747Z,97882.78
2018-09-28T21:17:31.067Z,97887.16
2018-09-28T21:20:00.375Z,97890.64
2018-09-28T21:22:29.697Z,97887.58
2018-09-28T21:24:59.020Z,97883.47
2018-09-28T21:27:28.337Z,97897.58
2018-09-28T21:29:57.695Z,97889.80
2018-09-28T21:32:27.044Z,97904.45
2018-09-28T21:34:56.370Z,97903.97
2018-09-28T21:37:25.742Z,97909.47
2018-09-28T21:39:55.136Z,97906.80
2018-09-28T21:42:24.484Z,97906.20
2018-09-28T21:44:53.836Z,97902.74
2018-09-28T21:47:23.184Z,97906.77
2018-09-28T21:49:52.583Z,97906.09
2018-09-28T21:52:21.922Z,97912.22
2018-09-28T21:54:51.385Z,97916.40
2018-09-28T21:57:20.717Z,97907.08
2018-09-28T21:59:50.050Z,97903.45
2018-09-28T22:02:19.366Z,97905.11
2018-09-28T22:04:48.757Z,97901.16
2018-09-28T22:07:18.059Z,97907.81
2018-09-28T22:09:47.394Z,97918.69
2018-09-28T22:12:16.712Z,97914.56
2018-09-28T22:14:46.017Z,97916.70
2018-09-28T22:17:15.332Z,97920.70
2018-09-28T22:19:44.676Z,97921.39
2018-09-28T22:22:14.003Z,97911.98
2018-09-28T22:24:43.406Z,97909.27
2018-09-28T22:27:12.820Z,97911.76
2018-09-28T22:29:42.139Z,97909.98
2018-09-28T22:32:11.498Z,97916.12
2018-09-28T22:34:40.828Z,97910.19
2018-09-28T22:37:10.133Z,97905.50
2018-09-28T22:39:39.445Z,97906.58
2018-09-28T22:42:08.784Z,97911.38
2018-09-28T22:44:38.128Z,97916.12
2018-09-28T22:47:07.480Z,97911.64
2018-09-28T22:49:36.815Z,97915.19
2018-09-28T22:52:06.125Z,97924.33
2018-09-28T22:54:35.450Z,97916.90
2018-09-28T22:57:04.867Z,97921.19
2018-09-28T22:59:34.171Z,97917.69
2018-09-28T23:02:03.874Z,97923.67
2018-09-28T23:04:33.181Z,97916.48
2018-09-28T23:07:02.502Z,97915.63
2018-09-28T23:09:31.809Z,97913.05
2018-09-28T23:12:01.188Z,97927.14
2018-09-28T23:14:30.522Z,97924.12
2018-09-28T23:16:59.887Z,97932.88
2018-09-28T23:19:29.225Z,97932.23
2018-09-28T23:21:58.574Z,97936.58
2018-09-28T23:24:27.896Z,97945.85
2018-09-28T23:26:57.214Z,97949.33
2018-09-28T23:29:26.539Z,97945.06
2018-09-28T23:31:55.860Z,97950.61
2018-09-28T23:34:25.341Z,97943.91
2018-09-28T23:36:54.672Z,97952.28
2018-09-28T23:39:23.997Z,97948.63
2018-09-28T23:41:53.424Z,97952.11
2018-09-28T23:44:22.805Z,97956.97
2018-09-28T23:46:52.150Z,97958.98
2018-09-28T23:49:21.487Z,97955.51
2018-09-28T23:51:51.444Z,97953.28
2018-09-28T23:54:20.787Z,97963.45
2018-09-28T23:56:50.109Z,97968.70
2018-09-28T23:59:19.424Z,97979.72
